Time;durP1;ratioP1;P1;durP2;ratioP2;P2;SDS_P1;SDS_P2;PMS_P1;PMS_P2;Temp;Humidity;BMP_temperature;BMP_pressure;BME280_temperature;BME280_humidity;BME280_pressure;Samples;Min_cycle;Max_cycle;Signal;HPM_P1;HPM_P2
2023/09/03 00:00:22;;;;;;;128.97;120.10;;;;;;;;;;5072385;28;20032;-59
2023/09/03 00:02:47;;;;;;;191.48;177.85;;;;;;;;;;5070921;28;20483;-58
2023/09/03 00:05:13;;;;;;;123.30;115.17;;;;;;;;;;5067556;28;20035;-57
2023/09/03 00:07:38;;;;;;;119.03;110.53;;;;;;;;;;5071345;28;20051;-59
2023/09/03 00:10:03;;;;;;;194.53;178.97;;;;;;;;;;5071811;28;20039;-56
2023/09/03 00:12:28;;;;;;;187.47;173.50;;;;;;;;;;5070686;28;20078;-59
2023/09/03 00:14:54;;;;;;;221.87;206.93;;;;;;;;;;5064472;28;20687;-59
2023/09/03 00:17:19;;;;;;;90.88;83.32;;;;;;;;;;5064956;28;20111;-59
2023/09/03 00:19:44;;;;;;;254.55;234.27;;;;;;;;;;5068658;28;20074;-59
2023/09/03 00:22:09;;;;;;;114.87;106.30;;;;;;;;;;5063226;28;20499;-60
2023/09/03 00:24:34;;;;;;;182.80;169.90;;;;;;;;;;5067142;28;20078;-58
2023/09/03 00:27:00;;;;;;;167.33;154.13;;;;;;;;;;5063257;28;20024;-59
2023/09/03 00:29:25;;;;;;;103.18;95.90;;;;;;;;;;5060828;28;20218;-58
2023/09/03 00:31:50;;;;;;;275.20;253.48;;;;;;;;;;5063996;28;20016;-59
2023/09/03 00:34:15;;;;;;;132.13;122.73;;;;;;;;;;5067237;28;20036;-59
2023/09/03 00:36:40;;;;;;;164.10;152.03;;;;;;;;;;5070134;28;20491;-58
2023/09/03 00:39:06;;;;;;;94.60;87.70;;;;;;;;;;5069705;28;20032;-58
2023/09/03 00:41:31;;;;;;;129.80;120.95;;;;;;;;;;5070900;28;20035;-58
2023/09/03 00:43:56;;;;;;;438.60;405.37;;;;;;;;;;5069954;28;20112;-59
2023/09/03 00:46:22;;;;;;;229.10;210.83;;;;;;;;;;5070151;28;20024;-59
2023/09/03 00:48:47;;;;;;;146.07;136.07;;;;;;;;;;5070899;28;20027;-58
2023/09/03 00:51:12;;;;;;;115.95;108.07;;;;;;;;;;5068463;28;20104;-58
2023/09/03 00:53:40;;;;;;;130.23;121.47;;;;;;;;;;5071476;28;20021;-59
2023/09/03 00:56:06;;;;;;;140.20;130.73;;;;;;;;;;5068348;28;20025;-58
2023/09/03 00:58:32;;;;;;;117.57;109.53;;;;;;;;;;5070151;28;20099;-58
2023/09/03 01:00:58;;;;;;;142.60;132.88;;;;;;;;;;5071241;28;20031;-58
2023/09/03 01:03:25;;;;;;;163.23;150.80;;;;;;;;;;5070705;28;20029;-58
2023/09/03 01:05:50;;;;;;;205.35;189.07;;;;;;;;;;5069340;28;20535;-59
2023/09/03 01:08:15;;;;;;;222.80;206.20;;;;;;;;;;5064140;28;20029;-58
2023/09/03 01:10:59;;;;;;;451.07;414.40;;;;;;;;;;5069558;28;20032;-58
2023/09/03 01:13:26;;;;;;;116.18;107.28;;;;;;;;;;5066491;28;20024;-59
2023/09/03 01:15:52;;;;;;;431.17;397.85;;;;;;;;;;5069385;28;20048;-58
2023/09/03 01:18:25;;;;;;;122.13;113.53;;;;;;;;;;5069000;28;20109;-58
2023/09/03 01:21:03;;;;;;;98.93;91.60;;;;;;;;;;5067493;28;20020;-60
2023/09/03 01:23:28;;;;;;;;;;;;;;;;;;5067721;28;20108;-59
2023/09/03 01:26:03;;;;;;;256.38;237.15;;;;;;;;;;5070284;28;19908;-58
2023/09/03 01:28:35;;;;;;;108.18;101.25;;;;;;;;;;5062220;28;20016;-59
2023/09/03 01:31:02;;;;;;;182.05;168.95;;;;;;;;;;5067621;28;20074;-58
2023/09/03 01:33:28;;;;;;;129.02;120.22;;;;;;;;;;5067475;28;20020;-58
2023/09/03 01:35:54;;;;;;;153.30;142.15;;;;;;;;;;5069447;28;20036;-58
2023/09/03 01:38:20;;;;;;;151.98;140.50;;;;;;;;;;5063350;28;20071;-58
2023/09/03 01:40:48;;;;;;;150.95;141.48;;;;;;;;;;5069964;28;20036;-58
2023/09/03 01:43:13;;;;;;;101.40;94.53;;;;;;;;;;5068790;28;20365;-58
2023/09/03 01:45:58;;;;;;;127.50;118.57;;;;;;;;;;5064224;28;20028;-59
2023/09/03 01:48:44;;;;;;;134.75;125.13;;;;;;;;;;5063320;28;20036;-58
2023/09/03 01:51:09;;;;;;;84.63;78.65;;;;;;;;;;5068832;28;20389;-61
2023/09/03 01:53:37;;;;;;;155.82;145.05;;;;;;;;;;5068040;28;20392;-58
2023/09/03 01:56:04;;;;;;;225.90;210.55;;;;;;;;;;5065171;28;20104;-58
2023/09/03 01:58:29;;;;;;;;;;;;;;;;;;5068777;28;20392;-60
2023/09/03 02:00:54;;;;;;;156.52;144.38;;;;;;;;;;5064751;28;20296;-58
2023/09/03 02:03:20;;;;;;;301.80;277.95;;;;;;;;;;5070151;28;20021;-58
2023/09/03 02:05:46;;;;;;;121.75;112.78;;;;;;;;;;5065172;28;20020;-59
2023/09/03 02:08:11;;;;;;;172.67;161.13;;;;;;;;;;5066423;28;20477;-58
2023/09/03 02:10:36;;;;;;;128.85;119.55;;;;;;;;;;5069022;28;20040;-58
2023/09/03 02:13:01;;;;;;;65.63;61.00;;;;;;;;;;5069609;28;20084;-58
2023/09/03 02:15:27;;;;;;;125.27;116.47;;;;;;;;;;5068132;28;20059;-58
2023/09/03 02:17:53;;;;;;;113.43;105.83;;;;;;;;;;5058303;28;20523;-58
2023/09/03 02:20:18;;;;;;;;;;;;;;;;;;5065593;28;20024;-58
2023/09/03 02:22:43;;;;;;;171.82;159.45;;;;;;;;;;5065468;28;19908;-58
2023/09/03 02:25:09;;;;;;;88.57;82.13;;;;;;;;;;5067116;28;20028;-58
2023/09/03 02:27:34;;;;;;;156.15;145.48;;;;;;;;;;5067686;28;20025;-58
2023/09/03 02:30:00;;;;;;;132.23;123.00;;;;;;;;;;5069067;28;20108;-58
2023/09/03 02:32:25;;;;;;;131.67;121.63;;;;;;;;;;5070021;28;20051;-58
2023/09/03 02:34:50;;;;;;;187.77;173.03;;;;;;;;;;5073557;28;20029;-59
2023/09/03 02:37:15;;;;;;;157.95;147.40;;;;;;;;;;5069498;28;20036;-58
2023/09/03 02:39:41;;;;;;;145.07;134.80;;;;;;;;;;5073733;28;20020;-58
2023/09/03 02:42:06;;;;;;;227.30;209.80;;;;;;;;;;5073648;28;20529;-58
2023/09/03 02:44:31;;;;;;;205.03;189.80;;;;;;;;;;5071272;28;20514;-58
2023/09/03 02:46:56;;;;;;;124.67;115.60;;;;;;;;;;5073012;28;20029;-58
2023/09/03 02:49:22;;;;;;;157.70;146.57;;;;;;;;;;5073444;28;20103;-58
2023/09/03 02:51:47;;;;;;;159.05;147.43;;;;;;;;;;5072365;28;20024;-58
2023/09/03 02:54:12;;;;;;;94.63;88.00;;;;;;;;;;5069463;28;20056;-58
2023/09/03 02:56:37;;;;;;;137.23;128.53;;;;;;;;;;5072594;28;20024;-59
2023/09/03 02:59:02;;;;;;;234.60;216.67;;;;;;;;;;5073173;28;20021;-58
2023/09/03 03:01:27;;;;;;;104.57;97.83;;;;;;;;;;5073050;28;20116;-58
2023/09/03 03:03:53;;;;;;;412.37;379.07;;;;;;;;;;5072047;28;20032;-58
2023/09/03 03:06:18;;;;;;;149.23;138.63;;;;;;;;;;5071644;28;20059;-58
2023/09/03 03:08:43;;;;;;;189.07;175.50;;;;;;;;;;5072740;28;20078;-57
2023/09/03 03:11:10;;;;;;;131.23;122.10;;;;;;;;;;5070458;28;20503;-58
2023/09/03 03:13:35;;;;;;;116.45;108.25;;;;;;;;;;5071831;28;20020;-58
2023/09/03 03:16:07;;;;;;;162.75;152.07;;;;;;;;;;5071074;28;20545;-58
2023/09/03 03:18:36;;;;;;;78.53;72.43;;;;;;;;;;5067346;28;20050;-58
2023/09/03 03:21:06;;;;;;;124.53;116.03;;;;;;;;;;5063909;28;20063;-58
2023/09/03 03:23:31;;;;;;;151.88;141.50;;;;;;;;;;5069284;28;20025;-58
2023/09/03 03:25:56;;;;;;;296.47;274.97;;;;;;;;;;5061551;28;20047;-58
2023/09/03 03:28:21;;;;;;;112.18;104.80;;;;;;;;;;5068399;28;20507;-58
2023/09/03 03:30:46;;;;;;;105.23;97.97;;;;;;;;;;5061718;28;20067;-58
2023/09/03 03:33:11;;;;;;;120.27;112.07;;;;;;;;;;5065544;28;20032;-58
2023/09/03 03:35:36;;;;;;;128.87;119.87;;;;;;;;;;5067416;28;20200;-58
2023/09/03 03:38:02;;;;;;;122.87;114.30;;;;;;;;;;5066198;28;20013;-57
2023/09/03 03:40:27;;;;;;;174.20;163.17;;;;;;;;;;5071122;28;20419;-57
2023/09/03 03:42:52;;;;;;;321.58;296.52;;;;;;;;;;5068473;28;20023;-58
2023/09/03 03:45:17;;;;;;;98.37;91.00;;;;;;;;;;5069371;28;20492;-57
2023/09/03 03:47:42;;;;;;;126.60;118.43;;;;;;;;;;5070699;28;20055;-58
2023/09/03 03:50:08;;;;;;;121.37;112.50;;;;;;;;;;5072081;28;20396;-58
2023/09/03 03:52:33;;;;;;;129.50;120.57;;;;;;;;;;5071224;28;20055;-58
2023/09/03 03:54:58;;;;;;;173.33;160.77;;;;;;;;;;5070025;28;20038;-58
2023/09/03 03:57:23;;;;;;;138.93;129.97;;;;;;;;;;5071312;28;20028;-57
2023/09/03 03:59:48;;;;;;;135.80;126.87;;;;;;;;;;5071875;28;20051;-57
2023/09/03 04:02:13;;;;;;;100.80;94.37;;;;;;;;;;5069283;28;20035;-57
2023/09/03 04:04:38;;;;;;;232.07;215.77;;;;;;;;;;5071660;28;20482;-57
2023/09/03 04:07:04;;;;;;;191.77;178.87;;;;;;;;;;5070041;28;20035;-57
2023/09/03 04:09:30;;;;;;;174.75;163.75;;;;;;;;;;5071570;28;20027;-58
2023/09/03 04:11:55;;;;;;;154.47;144.30;;;;;;;;;;5070824;28;20023;-58
2023/09/03 04:14:20;;;;;;;99.90;93.30;;;;;;;;;;5068916;28;20024;-58
2023/09/03 04:16:46;;;;;;;162.03;150.30;;;;;;;;;;5070932;28;20009;-57
2023/09/03 04:19:11;;;;;;;133.10;124.47;;;;;;;;;;5068737;28;20511;-57
2023/09/03 04:21:36;;;;;;;138.53;129.57;;;;;;;;;;5059266;28;20025;-57
2023/09/03 04:24:02;;;;;;;201.23;186.40;;;;;;;;;;5069323;28;20032;-57
2023/09/03 04:26:27;;;;;;;82.18;76.13;;;;;;;;;;5071119;28;20028;-57
2023/09/03 04:28:52;;;;;;;82.93;77.50;;;;;;;;;;5071268;28;20070;-58
2023/09/03 04:31:18;;;;;;;146.80;137.07;;;;;;;;;;5071380;28;20380;-57
2023/09/03 04:33:43;;;;;;;159.60;149.03;;;;;;;;;;5070613;28;20025;-57
2023/09/03 04:36:09;;;;;;;166.73;155.60;;;;;;;;;;5067701;28;20021;-57
2023/09/03 04:38:34;;;;;;;106.82;98.60;;;;;;;;;;5063528;28;20112;-58
2023/09/03 04:41:04;;;;;;;89.17;82.37;;;;;;;;;;5071172;28;20091;-58
2023/09/03 04:43:29;;;;;;;207.35;191.80;;;;;;;;;;5071208;28;20024;-60
2023/09/03 04:45:54;;;;;;;170.33;158.40;;;;;;;;;;5070946;28;20522;-59
2023/09/03 04:48:20;;;;;;;112.50;105.00;;;;;;;;;;5069025;28;20035;-59
2023/09/03 04:50:45;;;;;;;107.32;100.20;;;;;;;;;;5068721;28;20153;-58
2023/09/03 04:53:13;;;;;;;151.40;140.87;;;;;;;;;;5067407;28;20023;-58
2023/09/03 04:55:39;;;;;;;91.65;85.65;;;;;;;;;;5062684;28;20443;-58
2023/09/03 04:58:04;;;;;;;106.10;99.18;;;;;;;;;;5066465;28;20008;-58
2023/09/03 05:00:30;;;;;;;251.23;233.00;;;;;;;;;;5069832;28;20076;-59
2023/09/03 05:02:55;;;;;;;120.53;111.93;;;;;;;;;;5071161;28;20019;-57
2023/09/03 05:05:21;;;;;;;128.73;120.07;;;;;;;;;;5069782;28;20480;-57
2023/09/03 05:07:47;;;;;;;125.20;117.13;;;;;;;;;;5069759;28;20027;-57
2023/09/03 05:10:12;;;;;;;158.65;147.38;;;;;;;;;;5067918;28;20480;-58
2023/09/03 05:12:40;;;;;;;189.25;176.57;;;;;;;;;;5070584;28;20738;-57
2023/09/03 05:15:07;;;;;;;188.23;174.20;;;;;;;;;;5070848;28;20399;-58
2023/09/03 05:17:32;;;;;;;128.30;119.72;;;;;;;;;;5069113;28;20082;-59
2023/09/03 05:19:57;;;;;;;162.93;152.00;;;;;;;;;;5065185;28;20032;-58
2023/09/03 05:22:22;;;;;;;105.22;97.20;;;;;;;;;;5073053;28;20384;-58
2023/09/03 05:24:47;;;;;;;126.80;118.90;;;;;;;;;;5067858;28;20027;-59
2023/09/03 05:27:12;;;;;;;150.93;140.80;;;;;;;;;;5066834;28;20031;-58
2023/09/03 05:29:38;;;;;;;158.07;147.67;;;;;;;;;;5068243;28;20491;-58
2023/09/03 05:32:03;;;;;;;162.37;152.10;;;;;;;;;;5064673;28;20016;-58
2023/09/03 05:34:28;;;;;;;126.97;118.83;;;;;;;;;;5062881;28;20028;-58
2023/09/03 05:36:53;;;;;;;134.07;124.57;;;;;;;;;;5068820;28;20474;-58
2023/09/03 05:39:18;;;;;;;202.67;189.17;;;;;;;;;;5070270;28;20027;-58
2023/09/03 05:41:44;;;;;;;159.40;148.87;;;;;;;;;;5070836;28;20032;-58
2023/09/03 05:44:09;;;;;;;150.67;140.93;;;;;;;;;;5068331;28;21080;-58
2023/09/03 05:46:34;;;;;;;116.90;109.37;;;;;;;;;;5069543;28;20023;-58
2023/09/03 05:48:59;;;;;;;134.75;126.40;;;;;;;;;;5065609;28;20025;-58
2023/09/03 05:51:24;;;;;;;143.70;134.30;;;;;;;;;;5068531;28;20020;-58
2023/09/03 05:53:51;;;;;;;194.80;182.73;;;;;;;;;;5066904;28;20105;-59
2023/09/03 05:56:16;;;;;;;104.28;97.20;;;;;;;;;;5069420;28;20032;-59
2023/09/03 05:58:41;;;;;;;183.43;171.10;;;;;;;;;;5069353;28;20017;-58
2023/09/03 06:01:07;;;;;;;192.37;179.83;;;;;;;;;;5069436;28;20164;-58
2023/09/03 06:03:32;;;;;;;149.50;138.65;;;;;;;;;;5064191;28;20021;-57
2023/09/03 06:06:08;;;;;;;199.43;187.63;;;;;;;;;;5065794;28;20044;-57
2023/09/03 06:08:33;;;;;;;153.43;143.35;;;;;;;;;;5063433;28;20104;-57
2023/09/03 06:10:59;;;;;;;163.35;152.73;;;;;;;;;;5069413;28;20103;-57
2023/09/03 06:13:25;;;;;;;290.20;270.40;;;;;;;;;;5057397;28;20017;-57
2023/09/03 06:15:50;;;;;;;221.98;206.18;;;;;;;;;;5065584;28;20013;-57
2023/09/03 06:18:16;;;;;;;413.20;381.40;;;;;;;;;;5058189;28;20025;-57
2023/09/03 06:20:41;;;;;;;393.88;363.88;;;;;;;;;;5057434;28;20429;-57
2023/09/03 06:23:06;;;;;;;219.85;205.38;;;;;;;;;;5069512;28;20114;-57
2023/09/03 06:25:32;;;;;;;386.40;356.03;;;;;;;;;;5064126;28;20498;-57
2023/09/03 06:27:57;;;;;;;182.40;170.53;;;;;;;;;;5068520;28;20115;-57
2023/09/03 06:30:22;;;;;;;211.13;195.83;;;;;;;;;;5087857;28;20035;-57
2023/09/03 06:32:47;;;;;;;172.30;158.23;;;;;;;;;;5074318;28;20096;-58
2023/09/03 06:35:12;;;;;;;209.50;194.88;;;;;;;;;;5068303;28;20863;-57
2023/09/03 06:37:38;;;;;;;255.47;235.37;;;;;;;;;;5069310;28;20021;-58
2023/09/03 06:40:03;;;;;;;218.85;202.93;;;;;;;;;;5072441;28;20547;-58
2023/09/03 06:42:29;;;;;;;480.17;441.60;;;;;;;;;;5080612;28;20024;-58
2023/09/03 06:44:54;;;;;;;350.02;322.88;;;;;;;;;;5073112;28;20028;-58
2023/09/03 06:47:20;;;;;;;358.80;332.97;;;;;;;;;;5072578;28;20020;-57
2023/09/03 06:49:45;;;;;;;377.55;350.30;;;;;;;;;;5072848;28;20012;-57
2023/09/03 06:52:10;;;;;;;214.23;198.80;;;;;;;;;;5078646;28;20033;-58
2023/09/03 06:54:35;;;;;;;502.65;462.80;;;;;;;;;;5073482;28;20005;-58
2023/09/03 06:57:00;;;;;;;198.70;184.00;;;;;;;;;;5069974;28;20024;-58
2023/09/03 06:59:26;;;;;;;218.47;202.17;;;;;;;;;;5082851;28;20031;-58
2023/09/03 07:01:51;;;;;;;269.33;249.57;;;;;;;;;;5069996;28;20070;-58
2023/09/03 07:04:16;;;;;;;156.57;144.82;;;;;;;;;;5072669;28;20021;-57
2023/09/03 07:06:41;;;;;;;205.37;190.63;;;;;;;;;;5079213;28;20024;-57
2023/09/03 07:09:06;;;;;;;258.83;240.50;;;;;;;;;;5069517;28;20055;-58
2023/09/03 07:11:31;;;;;;;327.27;305.53;;;;;;;;;;5069969;28;20032;-57
2023/09/03 07:13:57;;;;;;;234.97;217.83;;;;;;;;;;5071795;28;20153;-58
2023/09/03 07:16:22;;;;;;;317.27;294.50;;;;;;;;;;5069207;28;20021;-58
2023/09/03 07:18:47;;;;;;;287.07;266.03;;;;;;;;;;5064050;28;20029;-58
2023/09/03 07:21:13;;;;;;;314.80;289.73;;;;;;;;;;5059105;28;20492;-58
2023/09/03 07:23:38;;;;;;;258.67;239.67;;;;;;;;;;5071285;28;20475;-57
2023/09/03 07:26:08;;;;;;;296.23;272.97;;;;;;;;;;5064480;28;20024;-57
2023/09/03 07:28:33;;;;;;;228.43;212.95;;;;;;;;;;5070727;28;20024;-57
2023/09/03 07:30:58;;;;;;;237.70;221.33;;;;;;;;;;5074685;28;20027;-57
2023/09/03 07:33:24;;;;;;;199.73;185.77;;;;;;;;;;5064140;28;20103;-58
2023/09/03 07:35:49;;;;;;;340.55;312.80;;;;;;;;;;5073517;28;20017;-58
2023/09/03 07:38:14;;;;;;;271.50;250.90;;;;;;;;;;5064188;28;20016;-58
2023/09/03 07:40:39;;;;;;;244.00;227.85;;;;;;;;;;5071724;28;20063;-57
2023/09/03 07:43:05;;;;;;;233.23;217.30;;;;;;;;;;5068885;28;20016;-58
2023/09/03 07:45:30;;;;;;;278.27;259.13;;;;;;;;;;5069467;28;20032;-57
2023/09/03 07:47:55;;;;;;;294.17;270.87;;;;;;;;;;5071887;28;20515;-58
2023/09/03 07:50:20;;;;;;;259.00;237.70;;;;;;;;;;5074868;28;20051;-57
2023/09/03 07:52:45;;;;;;;393.52;360.27;;;;;;;;;;5069385;28;20021;-58
2023/09/03 07:55:10;;;;;;;303.97;280.30;;;;;;;;;;5062794;28;20427;-57
2023/09/03 07:57:36;;;;;;;201.30;184.23;;;;;;;;;;5064687;28;20066;-57
2023/09/03 08:00:01;;;;;;;311.85;287.80;;;;;;;;;;5068576;28;20027;-58
2023/09/03 08:02:26;;;;;;;177.10;164.67;;;;;;;;;;5070998;28;20024;-57
2023/09/03 08:04:51;;;;;;;256.27;236.07;;;;;;;;;;5082157;28;20035;-57
2023/09/03 08:07:16;;;;;;;285.37;260.63;;;;;;;;;;5086777;28;20376;-57
2023/09/03 08:09:41;;;;;;;225.07;206.37;;;;;;;;;;5064599;28;20063;-57
2023/09/03 08:12:07;;;;;;;270.00;248.90;;;;;;;;;;5065029;28;20033;-58
2023/09/03 08:14:32;;;;;;;203.20;189.53;;;;;;;;;;5063087;28;20016;-58
2023/09/03 08:16:57;;;;;;;281.00;260.50;;;;;;;;;;5068919;28;20027;-57
2023/09/03 08:19:22;;;;;;;265.73;245.83;;;;;;;;;;5071110;28;20479;-57
2023/09/03 08:21:48;;;;;;;388.47;354.47;;;;;;;;;;5085138;28;20036;-57
2023/09/03 08:24:13;;;;;;;292.07;270.03;;;;;;;;;;5071827;28;20475;-58
2023/09/03 08:26:38;;;;;;;225.20;209.13;;;;;;;;;;5069683;28;20494;-57
2023/09/03 08:29:03;;;;;;;249.60;233.70;;;;;;;;;;5071749;28;20457;-57
2023/09/03 08:31:29;;;;;;;218.53;202.70;;;;;;;;;;5069589;28;20024;-58
2023/09/03 08:33:55;;;;;;;234.90;215.60;;;;;;;;;;5071338;28;20032;-58
2023/09/03 08:36:22;;;;;;;254.30;233.55;;;;;;;;;;5078389;28;20055;-57
2023/09/03 08:38:47;;;;;;;298.58;277.02;;;;;;;;;;5072862;28;20024;-57
2023/09/03 08:41:12;;;;;;;249.17;229.93;;;;;;;;;;5069977;28;20021;-57
2023/09/03 08:43:38;;;;;;;318.40;294.03;;;;;;;;;;5074066;28;20031;-57
2023/09/03 08:46:09;;;;;;;237.77;222.57;;;;;;;;;;5074305;28;20092;-58
2023/09/03 08:48:34;;;;;;;343.17;315.35;;;;;;;;;;5071001;28;20017;-58
2023/09/03 08:50:59;;;;;;;368.63;339.83;;;;;;;;;;5077679;28;20372;-58
2023/09/03 08:53:25;;;;;;;256.03;237.50;;;;;;;;;;5070865;28;20046;-58
2023/09/03 08:55:50;;;;;;;351.27;324.23;;;;;;;;;;5079214;28;20471;-57
2023/09/03 08:58:15;;;;;;;368.80;341.63;;;;;;;;;;5079136;28;20383;-57
2023/09/03 09:00:41;;;;;;;423.30;391.67;;;;;;;;;;5076690;28;20073;-57
2023/09/03 09:03:07;;;;;;;332.90;301.75;;;;;;;;;;5070838;28;20030;-57
2023/09/03 09:05:32;;;;;;;197.68;185.27;;;;;;;;;;5071922;28;20380;-58
2023/09/03 09:07:59;;;;;;;245.55;228.20;;;;;;;;;;5080290;28;20088;-57
2023/09/03 09:10:31;;;;;;;408.65;374.55;;;;;;;;;;5086172;28;20016;-57
2023/09/03 09:13:03;;;;;;;279.05;257.13;;;;;;;;;;5082114;28;20525;-58
2023/09/03 09:15:28;;;;;;;270.02;245.32;;;;;;;;;;5060977;28;20036;-57
2023/09/03 09:17:53;;;;;;;329.17;300.80;;;;;;;;;;5074050;28;20085;-58
2023/09/03 09:20:19;;;;;;;281.27;260.70;;;;;;;;;;5086439;28;20395;-59
2023/09/03 09:22:45;;;;;;;345.52;318.60;;;;;;;;;;5082565;28;20016;-57
2023/09/03 09:25:23;;;;;;;334.63;307.02;;;;;;;;;;5085061;28;20074;-57
2023/09/03 09:27:49;;;;;;;176.95;164.10;;;;;;;;;;5071422;28;20044;-58
2023/09/03 09:30:16;;;;;;;361.52;329.33;;;;;;;;;;5064980;28;20485;-58
2023/09/03 09:32:42;;;;;;;275.63;255.05;;;;;;;;;;5073024;28;20020;-57
2023/09/03 09:35:08;;;;;;;324.30;297.92;;;;;;;;;;5080462;28;20016;-57
2023/09/03 09:37:37;;;;;;;333.52;306.63;;;;;;;;;;5080639;28;20089;-57
2023/09/03 09:40:04;;;;;;;314.80;290.55;;;;;;;;;;5089693;28;20050;-57
2023/09/03 09:42:29;;;;;;;251.18;232.13;;;;;;;;;;5081201;28;20005;-58
2023/09/03 09:44:54;;;;;;;313.20;287.30;;;;;;;;;;5070961;28;20063;-58
2023/09/03 09:47:20;;;;;;;263.02;240.43;;;;;;;;;;5076615;28;20016;-58
2023/09/03 09:49:45;;;;;;;357.38;312.38;;;;;;;;;;5055950;28;20036;-57
2023/09/03 09:52:12;;;;;;;360.65;333.27;;;;;;;;;;5070254;28;20019;-57
2023/09/03 09:54:37;;;;;;;;;;;;;;;;;;5073754;28;20395;-57
2023/09/03 09:57:08;;;;;;;302.95;278.30;;;;;;;;;;5059338;28;19909;-57
2023/09/03 09:59:33;;;;;;;396.75;363.92;;;;;;;;;;5068329;28;20043;-58
2023/09/03 10:02:10;;;;;;;329.90;304.60;;;;;;;;;;5067884;28;20020;-57
2023/09/03 10:04:38;;;;;;;322.55;296.92;;;;;;;;;;5081680;28;20016;-56
2023/09/03 10:07:04;;;;;;;304.45;281.60;;;;;;;;;;5083174;28;20036;-57
2023/09/03 10:09:30;;;;;;;416.75;383.38;;;;;;;;;;5080493;28;20036;-58
2023/09/03 10:11:55;;;;;;;;;;;;;;;;;;5075235;28;20067;-57
2023/09/03 10:14:20;;;;;;;380.73;350.77;;;;;;;;;;5060488;28;19943;-57
2023/09/03 10:16:46;;;;;;;304.10;280.47;;;;;;;;;;5073074;28;20463;-58
2023/09/03 10:19:13;;;;;;;337.13;312.38;;;;;;;;;;5078564;28;20017;-58
2023/09/03 10:21:38;;;;;;;534.85;476.42;;;;;;;;;;5059850;28;20131;-57
2023/09/03 10:24:05;;;;;;;518.30;470.88;;;;;;;;;;5075820;28;20438;-58
2023/09/03 10:26:37;;;;;;;300.15;275.65;;;;;;;;;;5064346;28;20468;-58
2023/09/03 10:29:02;;;;;;;;;;;;;;;;;;5065325;28;20349;-57
2023/09/03 10:31:28;;;;;;;319.50;293.25;;;;;;;;;;5071190;28;20490;-57
2023/09/03 10:33:53;;;;;;;311.23;285.10;;;;;;;;;;5081767;28;20012;-58
2023/09/03 10:36:19;;;;;;;268.67;247.97;;;;;;;;;;5082910;28;20048;-58
2023/09/03 10:38:44;;;;;;;;;;;;;;;;;;5081108;28;20028;-58
2023/09/03 10:41:23;;;;;;;388.55;356.35;;;;;;;;;;5081739;28;19918;-57
2023/09/03 10:43:49;;;;;;;304.55;279.52;;;;;;;;;;5068350;28;20013;-57
2023/09/03 10:46:14;;;;;;;335.17;309.23;;;;;;;;;;5078472;28;20016;-57
2023/09/03 10:48:40;;;;;;;382.80;352.80;;;;;;;;;;5078403;28;20020;-58
2023/09/03 10:51:05;;;;;;;470.35;422.98;;;;;;;;;;5077093;28;20028;-57
2023/09/03 10:53:40;;;;;;;439.53;405.10;;;;;;;;;;5081528;28;20039;-57
2023/09/03 10:56:13;;;;;;;264.23;244.00;;;;;;;;;;5083528;28;20027;-57
2023/09/03 10:58:54;;;;;;;295.30;270.63;;;;;;;;;;5064274;28;20028;-58
2023/09/03 11:01:20;;;;;;;435.80;398.50;;;;;;;;;;5080918;28;20019;-57
2023/09/03 11:03:46;;;;;;;252.30;233.32;;;;;;;;;;5073871;28;20388;-57
2023/09/03 11:06:33;;;;;;;349.45;319.98;;;;;;;;;;5089430;28;20020;-57
2023/09/03 11:08:59;;;;;;;314.08;290.55;;;;;;;;;;5080857;28;20037;-57
2023/09/03 11:11:24;;;;;;;310.70;284.55;;;;;;;;;;5071102;28;20021;-57
2023/09/03 11:13:53;;;;;;;434.08;398.98;;;;;;;;;;5069057;28;20054;-58
2023/09/03 11:16:25;;;;;;;367.88;336.85;;;;;;;;;;5068170;28;20017;-57
2023/09/03 11:18:50;;;;;;;427.55;388.15;;;;;;;;;;5072578;28;20444;-57
2023/09/03 11:21:16;;;;;;;382.23;348.67;;;;;;;;;;5067896;28;20028;-56
2023/09/03 11:23:57;;;;;;;320.27;295.73;;;;;;;;;;5071069;28;20033;-58
2023/09/03 11:26:22;;;;;;;299.33;278.50;;;;;;;;;;5066715;28;20025;-58
2023/09/03 11:28:47;;;;;;;388.50;356.43;;;;;;;;;;5070524;28;20039;-59
2023/09/03 11:31:13;;;;;;;310.77;282.27;;;;;;;;;;5081159;28;20096;-58
2023/09/03 11:33:38;;;;;;;319.50;294.75;;;;;;;;;;5078029;28;20028;-57
2023/09/03 11:36:03;;;;;;;437.43;399.67;;;;;;;;;;5088138;28;20410;-57
2023/09/03 11:38:29;;;;;;;409.97;372.40;;;;;;;;;;5084660;28;20020;-57
2023/09/03 11:40:58;;;;;;;;;;;;;;;;;;5073337;28;20510;-57
2023/09/03 11:43:24;;;;;;;395.63;361.73;;;;;;;;;;5072901;28;19916;-57
2023/09/03 11:45:49;;;;;;;;;;;;;;;;;;5082692;28;20024;-57
2023/09/03 11:48:15;;;;;;;428.67;382.35;;;;;;;;;;5083677;28;19949;-57
2023/09/03 11:50:40;;;;;;;403.00;369.70;;;;;;;;;;5084801;28;20045;-57
2023/09/03 11:53:05;;;;;;;407.27;372.07;;;;;;;;;;5084033;28;20020;-57
2023/09/03 11:55:36;;;;;;;412.93;377.73;;;;;;;;;;5077004;28;20028;-57
2023/09/03 11:58:02;;;;;;;407.42;372.17;;;;;;;;;;5071837;28;20043;-57
2023/09/03 12:00:27;;;;;;;292.88;269.33;;;;;;;;;;5079534;28;20112;-57
2023/09/03 12:02:53;;;;;;;396.73;366.50;;;;;;;;;;5079636;28;20062;-57
2023/09/03 12:05:18;;;;;;;359.80;329.77;;;;;;;;;;5089963;28;20016;-58
2023/09/03 12:07:45;;;;;;;315.40;290.90;;;;;;;;;;5074514;28;20020;-57
2023/09/03 12:10:10;;;;;;;;;;;;;;;;;;5069685;28;20019;-58
2023/09/03 12:12:35;;;;;;;326.08;300.67;;;;;;;;;;5071582;28;19904;-57
2023/09/03 12:15:00;;;;;;;269.30;248.87;;;;;;;;;;5064114;28;20043;-57
2023/09/03 12:17:26;;;;;;;319.83;291.90;;;;;;;;;;5067786;28;20023;-57
2023/09/03 12:19:52;;;;;;;350.10;321.40;;;;;;;;;;5068988;28;20610;-57
2023/09/03 12:22:17;;;;;;;335.48;303.58;;;;;;;;;;5069912;28;20020;-57
2023/09/03 12:24:45;;;;;;;378.67;349.38;;;;;;;;;;5071054;28;20107;-57
2023/09/03 12:27:10;;;;;;;347.23;316.70;;;;;;;;;;5065876;28;20017;-57
2023/09/03 12:29:37;;;;;;;443.10;398.60;;;;;;;;;;5067009;28;20392;-58
2023/09/03 12:32:03;;;;;;;341.23;313.42;;;;;;;;;;5060413;28;20052;-58
2023/09/03 12:34:35;;;;;;;311.05;287.23;;;;;;;;;;5065626;28;20479;-58
2023/09/03 12:37:00;;;;;;;341.88;310.95;;;;;;;;;;5086411;28;20032;-57
2023/09/03 12:39:38;;;;;;;348.47;311.60;;;;;;;;;;5082632;28;20059;-58
2023/09/03 12:42:04;;;;;;;370.88;337.35;;;;;;;;;;5069706;28;20027;-57
2023/09/03 12:44:29;;;;;;;356.23;326.38;;;;;;;;;;5070909;28;20307;-59
2023/09/03 12:46:55;;;;;;;410.98;377.00;;;;;;;;;;5080609;28;20108;-58
2023/09/03 12:49:20;;;;;;;312.95;287.13;;;;;;;;;;5064726;28;20028;-58
2023/09/03 12:51:46;;;;;;;357.42;328.23;;;;;;;;;;5082982;28;20054;-58
2023/09/03 12:54:12;;;;;;;264.80;241.88;;;;;;;;;;5067247;28;20024;-58
2023/09/03 12:56:37;;;;;;;345.30;317.00;;;;;;;;;;5069084;28;20021;-58
2023/09/03 12:59:06;;;;;;;334.67;303.60;;;;;;;;;;5064348;28;20370;-58
2023/09/03 13:01:32;;;;;;;361.73;330.08;;;;;;;;;;5079069;28;20555;-58
2023/09/03 13:03:57;;;;;;;371.25;339.52;;;;;;;;;;5077957;28;20115;-58
2023/09/03 13:06:22;;;;;;;316.98;289.02;;;;;;;;;;5078224;28;20054;-57
2023/09/03 13:08:47;;;;;;;277.60;256.50;;;;;;;;;;5062736;28;20449;-57
2023/09/03 13:11:12;;;;;;;403.00;371.37;;;;;;;;;;5069377;28;20048;-57
2023/09/03 13:13:38;;;;;;;363.90;332.67;;;;;;;;;;5072811;28;20030;-58
2023/09/03 13:16:03;;;;;;;311.83;287.10;;;;;;;;;;5069960;28;20059;-58
2023/09/03 13:18:29;;;;;;;240.95;221.57;;;;;;;;;;5069742;28;20025;-57
2023/09/03 13:20:54;;;;;;;409.98;375.70;;;;;;;;;;5076759;28;20060;-57
2023/09/03 13:23:19;;;;;;;340.20;311.70;;;;;;;;;;5066812;28;20016;-58
2023/09/03 13:25:44;;;;;;;333.80;309.27;;;;;;;;;;5067662;28;20013;-58
2023/09/03 13:28:10;;;;;;;348.77;319.60;;;;;;;;;;5076808;28;20064;-58
2023/09/03 13:30:35;;;;;;;431.35;396.27;;;;;;;;;;5072224;28;20012;-58
2023/09/03 13:33:01;;;;;;;340.40;308.38;;;;;;;;;;5082451;28;20375;-58
2023/09/03 13:35:27;;;;;;;413.20;375.35;;;;;;;;;;5085308;28;20021;-58
2023/09/03 13:37:52;;;;;;;;;;;;;;;;;;5074918;28;20036;-57
2023/09/03 13:40:18;;;;;;;552.08;498.45;;;;;;;;;;5069790;28;20360;-58
2023/09/03 13:42:43;;;;;;;374.70;342.53;;;;;;;;;;5077575;28;20009;-57
2023/09/03 13:45:08;;;;;;;360.63;329.02;;;;;;;;;;5073871;28;20020;-57
2023/09/03 13:47:33;;;;;;;288.05;264.98;;;;;;;;;;5081025;28;20568;-57
2023/09/03 13:49:58;;;;;;;352.27;321.47;;;;;;;;;;5085272;28;20015;-58
2023/09/03 13:52:24;;;;;;;373.77;339.65;;;;;;;;;;5068455;28;20549;-58